createdAt,value
2018-03-17T00:00:34.755Z,3.83
2018-03-17T00:03:02.275Z,3.83
2018-03-17T00:05:29.810Z,3.17
2018-03-17T00:07:58.137Z,3.33
2018-03-17T00:10:25.820Z,3.30
2018-03-17T00:12:53.550Z,3.70
2018-03-17T00:15:21.792Z,2.90
2018-03-17T00:17:49.585Z,3.30
2018-03-17T00:20:17.134Z,3.40
2018-03-17T00:22:45.021Z,2.60
2018-03-17T00:25:12.762Z,3.00
2018-03-17T00:27:40.477Z,3.80
2018-03-17T00:30:08.464Z,3.50
2018-03-17T00:32:36.263Z,2.60
2018-03-17T00:35:04.233Z,3.07
2018-03-17T00:37:32.730Z,3.40
2018-03-17T00:40:00.310Z,3.40
2018-03-17T00:42:28.158Z,4.10
2018-03-17T00:44:55.739Z,3.50
2018-03-17T00:47:23.381Z,3.40
2018-03-17T00:49:50.985Z,3.00
2018-03-17T00:52:18.766Z,2.65
2018-03-17T00:54:46.279Z,3.30
2018-03-17T00:57:13.895Z,3.37
2018-03-17T00:59:41.641Z,3.20
2018-03-17T01:02:09.251Z,3.50
2018-03-17T01:04:36.925Z,3.83
2018-03-17T01:07:04.654Z,3.53
2018-03-17T01:09:32.365Z,3.30
2018-03-17T01:11:59.996Z,3.70
2018-03-17T01:14:27.536Z,2.67
2018-03-17T01:16:55.241Z,3.20
2018-03-17T01:19:22.976Z,3.00
2018-03-17T01:21:50.522Z,3.20
2018-03-17T01:24:18.044Z,3.87
2018-03-17T01:26:45.606Z,3.00
2018-03-17T01:29:13.742Z,2.72
2018-03-17T01:31:41.426Z,3.50
2018-03-17T01:34:09.104Z,3.90
2018-03-17T01:36:36.800Z,3.40
2018-03-17T01:39:04.326Z,3.40
2018-03-17T01:41:31.930Z,3.40
2018-03-17T01:43:59.576Z,3.67
2018-03-17T01:46:27.216Z,3.27
2018-03-17T01:48:54.795Z,3.67
2018-03-17T01:51:22.339Z,3.60
2018-03-17T01:53:49.881Z,3.40
2018-03-17T01:56:17.391Z,3.17
2018-03-17T01:58:45.139Z,4.00
2018-03-17T02:01:12.735Z,3.00
2018-03-17T02:03:40.716Z,3.10
2018-03-17T02:06:08.380Z,3.80
2018-03-17T02:08:36.085Z,3.00
2018-03-17T02:11:04.575Z,3.07
2018-03-17T02:13:32.316Z,3.40
2018-03-17T02:15:59.963Z,3.60
2018-03-17T02:18:27.497Z,3.50
2018-03-17T02:20:55.370Z,3.10
2018-03-17T02:23:23.011Z,4.23
2018-03-17T02:25:50.546Z,3.33
2018-03-17T02:28:18.085Z,3.47
2018-03-17T02:30:45.771Z,3.13
2018-03-17T02:33:13.292Z,3.70
2018-03-17T02:35:40.960Z,3.78
2018-03-17T02:38:08.494Z,3.73
2018-03-17T02:40:36.160Z,2.97
2018-03-17T02:43:03.880Z,3.27
2018-03-17T02:45:31.583Z,3.08
2018-03-17T02:47:59.261Z,3.43
2018-03-17T02:50:26.886Z,3.17
2018-03-17T02:52:54.693Z,3.83
2018-03-17T02:55:22.273Z,3.50
2018-03-17T02:57:49.860Z,3.30
2018-03-17T03:00:17.515Z,3.37
2018-03-17T03:02:46.020Z,3.90
2018-03-17T03:05:14.253Z,3.77
2018-03-17T03:07:42.353Z,3.40
2018-03-17T03:10:10.121Z,3.37
2018-03-17T03:12:37.815Z,3.57
2018-03-17T03:15:05.616Z,3.40
2018-03-17T03:17:33.266Z,3.00
2018-03-17T03:20:00.810Z,3.70
2018-03-17T03:22:28.345Z,3.20
2018-03-17T03:24:56.016Z,3.10
2018-03-17T03:27:23.627Z,3.20
2018-03-17T03:29:51.379Z,3.67
2018-03-17T03:32:18.910Z,4.15
2018-03-17T03:34:46.761Z,3.20
2018-03-17T03:37:14.607Z,4.10
2018-03-17T03:39:42.247Z,3.57
2018-03-17T03:42:09.884Z,3.13
2018-03-17T03:44:37.583Z,3.53
2018-03-17T03:47:05.267Z,3.07
2018-03-17T03:49:32.800Z,3.77
2018-03-17T03:52:00.335Z,3.22
2018-03-17T03:54:27.866Z,3.33
2018-03-17T03:56:55.425Z,2.80
2018-03-17T03:59:23.172Z,3.37
2018-03-17T04:01:50.991Z,3.60
2018-03-17T04:04:18.596Z,2.90
2018-03-17T04:06:46.217Z,2.63
2018-03-17T04:09:13.785Z,3.30
2018-03-17T04:11:41.311Z,3.83
2018-03-17T04:14:09.536Z,3.00
2018-03-17T04:16:37.211Z,3.70
2018-03-17T04:19:04.907Z,2.87
2018-03-17T04:21:32.484Z,3.80
2018-03-17T04:24:00.075Z,3.97
2018-03-17T04:26:27.682Z,3.50
2018-03-17T04:28:55.240Z,3.40
2018-03-17T04:31:22.936Z,3.10
2018-03-17T04:33:50.735Z,3.47
2018-03-17T04:36:18.566Z,3.40
2018-03-17T04:38:46.311Z,3.20
2018-03-17T04:41:13.847Z,3.40
2018-03-17T04:43:41.445Z,3.27
2018-03-17T04:46:09.355Z,3.00
2018-03-17T04:48:37.092Z,3.65
2018-03-17T04:51:04.620Z,3.60
2018-03-17T04:53:32.251Z,3.80
2018-03-17T04:55:59.840Z,3.43
2018-03-17T04:58:27.354Z,3.13
2018-03-17T05:00:54.898Z,3.70
2018-03-17T05:03:22.775Z,3.83
2018-03-17T05:05:50.449Z,4.80
2018-03-17T05:08:18.200Z,3.77
2018-03-17T05:10:45.857Z,3.90
2018-03-17T05:13:13.554Z,3.60
2018-03-17T05:15:41.081Z,2.90
2018-03-17T05:18:09.162Z,3.80
2018-03-17T05:20:36.696Z,3.03
2018-03-17T05:23:04.230Z,3.80
2018-03-17T05:25:32.039Z,4.13
2018-03-17T05:27:59.551Z,2.90
2018-03-17T05:30:27.324Z,3.90
2018-03-17T05:32:54.876Z,3.77
2018-03-17T05:35:22.485Z,4.57
2018-03-17T05:37:50.204Z,3.80
2018-03-17T05:40:17.745Z,3.60
2018-03-17T05:42:45.336Z,4.07
2018-03-17T05:45:13.142Z,4.63
2018-03-17T05:47:40.641Z,3.73
2018-03-17T05:50:08.239Z,4.10
2018-03-17T05:52:35.842Z,3.77
2018-03-17T05:55:03.475Z,3.70
2018-03-17T05:57:31.024Z,3.77
2018-03-17T05:59:58.676Z,3.90
2018-03-17T06:02:26.207Z,4.00
2018-03-17T06:04:53.791Z,3.60
2018-03-17T06:07:21.426Z,4.00
2018-03-17T06:09:48.976Z,4.43
2018-03-17T06:12:16.774Z,5.63
2018-03-17T06:14:44.307Z,7.20
2018-03-17T06:17:11.852Z,6.53
2018-03-17T06:19:39.375Z,5.57
2018-03-17T06:22:06.934Z,6.77
2018-03-17T06:24:34.475Z,5.90
2018-03-17T06:27:02.060Z,4.90
2018-03-17T06:29:29.620Z,7.60
2018-03-17T06:31:57.431Z,7.83
2018-03-17T06:34:24.960Z,10.83
2018-03-17T06:36:52.586Z,9.87
2018-03-17T06:39:20.114Z,9.70
2018-03-17T06:41:47.658Z,8.90
2018-03-17T06:44:15.221Z,8.83
2018-03-17T06:46:42.801Z,8.53
2018-03-17T06:49:10.481Z,9.27
2018-03-17T06:51:38.036Z,14.40
2018-03-17T06:54:05.707Z,11.85
2018-03-17T06:56:33.289Z,10.60
2018-03-17T06:59:00.901Z,10.70
2018-03-17T07:01:28.480Z,10.67
2018-03-17T07:03:56.036Z,10.05
2018-03-17T07:06:23.675Z,10.93
2018-03-17T07:08:51.209Z,12.67
2018-03-17T07:11:18.774Z,11.80
2018-03-17T07:13:46.507Z,13.13
2018-03-17T07:16:14.341Z,11.57
2018-03-17T07:18:42.071Z,11.33
2018-03-17T07:21:09.689Z,13.43
2018-03-17T07:23:37.451Z,12.20
2018-03-17T07:26:05.131Z,19.17
2018-03-17T07:28:32.762Z,16.10
2018-03-17T07:31:00.449Z,20.40
2018-03-17T07:33:27.978Z,23.07
2018-03-17T07:35:55.636Z,21.07
2018-03-17T07:38:23.212Z,20.20
2018-03-17T07:40:51.014Z,19.97
2018-03-17T07:43:18.721Z,18.63
2018-03-17T07:45:46.251Z,19.00
2018-03-17T07:48:14.048Z,19.57
2018-03-17T07:50:41.686Z,19.83
2018-03-17T07:53:09.761Z,17.27
2018-03-17T07:55:37.302Z,18.47
2018-03-17T07:58:05.094Z,16.67
2018-03-17T08:00:32.745Z,18.50
2018-03-17T08:03:00.372Z,18.40
2018-03-17T08:05:27.970Z,19.30
2018-03-17T08:07:55.522Z,17.60
2018-03-17T08:10:23.387Z,17.43
2018-03-17T08:12:51.057Z,19.13
2018-03-17T08:15:19.022Z,17.43
2018-03-17T08:17:46.545Z,18.12
2018-03-17T08:20:14.181Z,19.20
2018-03-17T08:22:42.298Z,19.17
2018-03-17T08:25:09.991Z,19.40
2018-03-17T08:27:37.629Z,19.03
2018-03-17T08:30:06.112Z,18.45
2018-03-17T08:32:33.776Z,18.67
2018-03-17T08:35:01.345Z,18.25
2018-03-17T08:37:28.977Z,20.03
2018-03-17T08:39:56.556Z,20.00
2018-03-17T08:42:24.406Z,21.70
2018-03-17T08:44:52.092Z,25.90
2018-03-17T08:47:19.716Z,20.83
2018-03-17T08:49:47.521Z,24.40
2018-03-17T08:52:20.288Z,23.50
2018-03-17T08:54:48.071Z,23.60
2018-03-17T08:57:15.658Z,22.67
2018-03-17T08:59:43.557Z,22.20
2018-03-17T09:02:11.227Z,21.60
2018-03-17T09:04:38.952Z,22.10
2018-03-17T09:07:06.500Z,25.47
2018-03-17T09:09:35.116Z,24.37
2018-03-17T09:12:02.655Z,22.53
2018-03-17T09:14:30.278Z,24.33
2018-03-17T09:16:57.817Z,21.90
2018-03-17T09:19:25.400Z,22.73
2018-03-17T09:21:53.172Z,25.17
2018-03-17T09:24:20.765Z,21.87
2018-03-17T09:26:49.142Z,23.00
2018-03-17T09:29:16.758Z,24.27
2018-03-17T09:31:44.293Z,22.33
2018-03-17T09:34:11.991Z,22.47
2018-03-17T09:36:39.598Z,22.10
2018-03-17T09:39:07.309Z,21.07
2018-03-17T09:41:35.262Z,23.80
2018-03-17T09:44:02.830Z,24.12
2018-03-17T09:46:30.496Z,23.03
2018-03-17T09:48:58.261Z,25.10
2018-03-17T09:51:26.737Z,24.40
2018-03-17T09:53:54.420Z,22.30
2018-03-17T09:56:22.076Z,22.80
2018-03-17T09:58:49.830Z,22.50
2018-03-17T10:01:17.437Z,21.45
2018-03-17T10:03:45.595Z,23.73
2018-03-17T10:06:13.177Z,22.40
2018-03-17T10:08:40.776Z,24.20
2018-03-17T10:11:09.131Z,26.80
2018-03-17T10:13:36.681Z,25.20
2018-03-17T10:16:04.377Z,23.77
2018-03-17T10:18:31.977Z,30.57
2018-03-17T10:20:59.598Z,25.90
2018-03-17T10:23:27.393Z,24.50
2018-03-17T10:25:55.115Z,23.70
2018-03-17T10:28:22.867Z,23.98
2018-03-17T10:30:50.448Z,21.20
2018-03-17T10:33:17.988Z,22.10
2018-03-17T10:35:45.657Z,21.03
2018-03-17T10:38:13.212Z,22.50
2018-03-17T10:40:40.837Z,20.70
2018-03-17T10:43:08.591Z,24.58
2018-03-17T10:45:36.274Z,23.60
2018-03-17T10:48:04.006Z,23.43
2018-03-17T10:50:31.593Z,22.43
2018-03-17T10:52:59.342Z,23.20
2018-03-17T10:55:27.035Z,21.45
2018-03-17T10:57:54.576Z,26.57
2018-03-17T11:00:27.673Z,24.10
2018-03-17T11:02:55.246Z,22.50
2018-03-17T11:05:23.513Z,23.33
2018-03-17T11:07:52.002Z,27.10
2018-03-17T11:10:20.145Z,21.83
2018-03-17T11:12:47.768Z,23.98
2018-03-17T11:15:15.526Z,22.70
2018-03-17T11:17:43.087Z,21.57
2018-03-17T11:20:10.710Z,22.17
2018-03-17T11:22:38.373Z,25.53
2018-03-17T11:25:06.082Z,21.37
2018-03-17T11:27:33.736Z,25.70
2018-03-17T11:30:01.557Z,28.27
2018-03-17T11:32:29.242Z,24.40
2018-03-17T11:34:56.957Z,23.17
2018-03-17T11:37:24.575Z,26.57
2018-03-17T11:39:52.250Z,25.77
2018-03-17T11:42:19.775Z,27.62
2018-03-17T11:44:47.447Z,25.77
2018-03-17T11:47:15.080Z,25.47
2018-03-17T11:49:42.778Z,27.60
2018-03-17T11:52:10.514Z,48.43
2018-03-17T11:54:38.236Z,36.30
2018-03-17T11:57:05.995Z,28.83
2018-03-17T11:59:33.602Z,25.37
2018-03-17T12:02:01.207Z,25.57
2018-03-17T12:04:28.858Z,25.57
2018-03-17T12:06:56.693Z,27.70
2018-03-17T12:09:24.245Z,26.23
2018-03-17T12:11:51.991Z,26.87
2018-03-17T12:14:19.680Z,25.05
2018-03-17T12:16:47.366Z,25.27
2018-03-17T12:19:14.906Z,25.02
2018-03-17T12:21:42.551Z,28.20
2018-03-17T12:24:10.146Z,24.10
2018-03-17T12:26:37.826Z,24.13
2018-03-17T12:29:05.578Z,25.23
2018-03-17T12:31:33.216Z,25.20
2018-03-17T12:34:00.772Z,23.83
2018-03-17T12:36:28.527Z,25.70
2018-03-17T12:38:56.148Z,24.87
2018-03-17T12:41:24.071Z,25.37
2018-03-17T12:43:51.608Z,23.70
2018-03-17T12:46:19.163Z,23.60
2018-03-17T12:48:46.757Z,24.67
2018-03-17T12:51:14.696Z,24.43
2018-03-17T12:53:42.333Z,22.60
2018-03-17T12:56:09.908Z,22.50
2018-03-17T12:58:38.068Z,22.87
2018-03-17T13:01:05.811Z,23.23
2018-03-17T13:03:33.520Z,21.90
2018-03-17T13:06:01.196Z,22.30
2018-03-17T13:08:28.751Z,23.17
2018-03-17T13:10:56.454Z,37.30
2018-03-17T13:13:24.766Z,21.60
2018-03-17T13:15:52.338Z,23.50
2018-03-17T13:18:20.106Z,34.83
2018-03-17T13:20:47.880Z,25.75
2018-03-17T13:23:16.320Z,34.50
2018-03-17T13:25:43.912Z,24.17
2018-03-17T13:28:26.884Z,22.80
2018-03-17T13:30:54.663Z,23.00
2018-03-17T13:33:22.721Z,21.73
2018-03-17T13:36:02.502Z,29.05
2018-03-17T13:38:30.064Z,25.03
2018-03-17T13:40:57.623Z,25.20
2018-03-17T13:43:26.256Z,26.20
2018-03-17T13:45:55.011Z,23.80
2018-03-17T13:48:22.661Z,24.57
2018-03-17T13:50:50.305Z,22.07
2018-03-17T13:53:17.911Z,22.63
2018-03-17T13:55:45.571Z,24.27
2018-03-17T13:58:13.336Z,22.13
2018-03-17T14:00:42.892Z,24.57
2018-03-17T14:03:11.499Z,21.13
2018-03-17T14:05:39.271Z,22.60
2018-03-17T14:08:07.139Z,21.50
2018-03-17T14:10:34.785Z,23.23
2018-03-17T14:13:02.375Z,22.10
2018-03-17T14:15:30.035Z,20.20
2018-03-17T14:17:57.724Z,26.30
2018-03-17T14:20:25.493Z,25.97
2018-03-17T14:22:53.197Z,27.33
2018-03-17T14:25:20.760Z,25.20
2018-03-17T14:27:48.439Z,27.80
2018-03-17T14:30:16.239Z,23.70
2018-03-17T14:32:43.837Z,22.67
2018-03-17T14:35:11.747Z,25.37
2018-03-17T14:37:39.414Z,26.83
2018-03-17T14:40:07.112Z,25.20
2018-03-17T14:42:34.821Z,26.80
2018-03-17T14:45:02.457Z,25.47
2018-03-17T14:47:30.200Z,26.60
2018-03-17T14:49:58.600Z,21.80
2018-03-17T14:52:26.330Z,22.45
2018-03-17T14:54:53.880Z,20.07
2018-03-17T14:57:21.452Z,21.75
2018-03-17T14:59:49.227Z,21.87
2018-03-17T15:02:16.880Z,20.83
2018-03-17T15:04:44.598Z,20.90
2018-03-17T15:07:12.228Z,20.13
2018-03-17T15:09:39.844Z,20.03
2018-03-17T15:12:07.556Z,22.90
2018-03-17T15:14:35.172Z,23.60
2018-03-17T15:17:02.978Z,20.23
2018-03-17T15:19:30.651Z,21.90
2018-03-17T15:21:58.492Z,24.40
2018-03-17T15:24:26.081Z,21.83
2018-03-17T15:26:53.897Z,22.10
2018-03-17T15:29:21.532Z,23.67
2018-03-17T15:31:49.192Z,22.60
2018-03-17T15:34:16.786Z,21.47
2018-03-17T15:36:44.586Z,21.07
2018-03-17T15:39:12.473Z,20.30
2018-03-17T15:41:40.023Z,21.13
2018-03-17T15:44:07.596Z,23.20
2018-03-17T15:46:35.157Z,20.50
2018-03-17T15:49:06.710Z,19.73
2018-03-17T15:51:34.371Z,22.73
2018-03-17T15:54:02.091Z,20.13
2018-03-17T15:56:29.755Z,22.83
2018-03-17T15:58:57.466Z,21.53
2018-03-17T16:01:25.025Z,20.27
2018-03-17T16:03:52.670Z,20.80
2018-03-17T16:06:21.040Z,21.97
2018-03-17T16:08:48.701Z,21.37
2018-03-17T16:11:16.236Z,22.33
2018-03-17T16:13:43.806Z,21.53
2018-03-17T16:16:11.459Z,21.23
2018-03-17T16:18:39.030Z,19.87
2018-03-17T16:21:06.856Z,20.13
2018-03-17T16:23:34.446Z,22.00
2018-03-17T16:26:02.213Z,21.00
2018-03-17T16:28:29.893Z,21.02
2018-03-17T16:30:57.568Z,19.30
2018-03-17T16:33:25.222Z,19.75
2018-03-17T16:35:52.791Z,21.30
2018-03-17T16:38:20.337Z,18.97
2018-03-17T16:40:48.040Z,21.07
2018-03-17T16:43:15.591Z,19.67
2018-03-17T16:45:43.120Z,19.17
2018-03-17T16:48:10.721Z,19.83
2018-03-17T16:50:38.618Z,19.87
2018-03-17T16:53:06.362Z,18.10
2018-03-17T16:55:34.002Z,19.30
2018-03-17T16:58:01.616Z,18.60
2018-03-17T17:00:29.192Z,19.13
2018-03-17T17:02:56.745Z,17.50
2018-03-17T17:05:24.336Z,20.20
2018-03-17T17:07:51.999Z,18.30
2018-03-17T17:10:19.566Z,18.43
2018-03-17T17:12:47.276Z,19.60
2018-03-17T17:15:14.866Z,17.83
2018-03-17T17:17:42.525Z,23.40
2018-03-17T17:20:10.251Z,19.37
2018-03-17T17:22:37.965Z,16.75
2018-03-17T17:25:05.739Z,17.00
2018-03-17T17:27:33.315Z,17.50
2018-03-17T17:30:01.141Z,16.30
2018-03-17T17:32:28.745Z,17.02
2018-03-17T17:34:56.336Z,16.27
2018-03-17T17:37:25.557Z,16.80
2018-03-17T17:39:53.105Z,16.10
2018-03-17T17:42:20.716Z,15.30
2018-03-17T17:44:48.281Z,16.57
2018-03-17T17:47:16.075Z,15.80
2018-03-17T17:49:43.682Z,17.05
2018-03-17T17:52:11.461Z,16.83
2018-03-17T17:54:39.040Z,15.45
2018-03-17T17:57:06.785Z,15.53
2018-03-17T17:59:34.455Z,14.67
2018-03-17T18:02:02.052Z,15.53
2018-03-17T18:04:29.802Z,14.77
2018-03-17T18:06:58.044Z,15.03
2018-03-17T18:09:25.833Z,14.00
2018-03-17T18:11:53.516Z,17.07
2018-03-17T18:14:21.138Z,14.02
2018-03-17T18:16:49.131Z,14.40
2018-03-17T18:19:16.676Z,14.47
2018-03-17T18:21:44.280Z,16.58
2018-03-17T18:24:11.841Z,19.30
2018-03-17T18:26:39.581Z,14.13
2018-03-17T18:29:07.140Z,16.63
2018-03-17T18:31:34.727Z,16.80
2018-03-17T18:34:02.293Z,17.67
2018-03-17T18:36:30.952Z,17.80
2018-03-17T18:38:58.720Z,17.00
2018-03-17T18:41:26.275Z,16.93
2018-03-17T18:43:53.872Z,16.60
2018-03-17T18:46:21.613Z,16.10
2018-03-17T18:48:50.027Z,16.20
2018-03-17T18:51:17.898Z,15.30
2018-03-17T18:53:45.570Z,16.47
2018-03-17T18:56:13.122Z,14.50
2018-03-17T18:58:40.787Z,16.80
2018-03-17T19:01:08.371Z,16.20
2018-03-17T19:03:36.181Z,17.10
2018-03-17T19:06:03.753Z,14.33
2018-03-17T19:08:31.473Z,15.37
2018-03-17T19:10:59.015Z,15.10
2018-03-17T19:13:26.575Z,19.20
2018-03-17T19:15:54.235Z,15.00
2018-03-17T19:18:21.912Z,14.83
2018-03-17T19:20:49.520Z,15.80
2018-03-17T19:23:17.217Z,15.80
2018-03-17T19:25:44.751Z,14.17
2018-03-17T19:28:12.309Z,15.43
2018-03-17T19:30:40.005Z,14.27
2018-03-17T19:33:07.557Z,14.77
2018-03-17T19:35:35.195Z,15.25
2018-03-17T19:38:02.861Z,15.63
2018-03-17T19:40:30.480Z,15.63
2018-03-17T19:42:58.301Z,15.10
2018-03-17T19:45:26.016Z,16.00
2018-03-17T19:47:53.736Z,19.42
2018-03-17T19:50:21.594Z,16.40
2018-03-17T19:52:49.362Z,17.93
2018-03-17T19:55:17.130Z,17.70
2018-03-17T19:57:44.961Z,18.10
2018-03-17T20:00:12.705Z,16.73
2018-03-17T20:02:40.430Z,17.73
2018-03-17T20:05:08.416Z,18.90
2018-03-17T20:07:36.141Z,18.80
2018-03-17T20:10:03.796Z,19.60
2018-03-17T20:12:31.387Z,16.97
2018-03-17T20:14:59.026Z,17.00
2018-03-17T20:17:26.797Z,17.00
2018-03-17T20:19:54.541Z,20.50
2018-03-17T20:22:22.277Z,16.53
2018-03-17T20:24:50.172Z,17.13
2018-03-17T20:27:17.882Z,20.10
2018-03-17T20:29:45.451Z,22.40
2018-03-17T20:32:13.048Z,19.30
2018-03-17T20:34:40.916Z,18.10
2018-03-17T20:37:08.536Z,17.30
2018-03-17T20:39:36.135Z,17.25
2018-03-17T20:42:03.812Z,17.40
2018-03-17T20:44:31.681Z,17.80
2018-03-17T20:46:59.235Z,18.70
2018-03-17T20:49:26.847Z,16.80
2018-03-17T20:51:54.586Z,18.27
2018-03-17T20:54:22.295Z,17.60
2018-03-17T20:56:49.961Z,19.60
2018-03-17T20:59:17.884Z,20.27
2018-03-17T21:01:45.518Z,20.33
2018-03-17T21:04:13.368Z,20.07
2018-03-17T21:06:41.271Z,19.40
2018-03-17T21:09:08.981Z,19.63
2018-03-17T21:11:37.260Z,21.80
2018-03-17T21:14:05.015Z,22.20
2018-03-17T21:16:35.243Z,22.77
2018-03-17T21:19:03.167Z,21.37
2018-03-17T21:21:30.771Z,21.13
2018-03-17T21:23:58.349Z,21.53
2018-03-17T21:26:26.122Z,21.40
2018-03-17T21:28:53.796Z,21.47
2018-03-17T21:31:22.371Z,22.92
2018-03-17T21:33:50.141Z,20.30
2018-03-17T21:36:17.775Z,22.00
2018-03-17T21:38:45.351Z,21.53
2018-03-17T21:41:13.122Z,22.65
2018-03-17T21:43:40.978Z,21.40
2018-03-17T21:46:08.657Z,22.53
2018-03-17T21:48:36.281Z,22.37
2018-03-17T21:51:03.931Z,20.03
2018-03-17T21:53:31.592Z,20.00
2018-03-17T21:55:59.270Z,22.73
2018-03-17T21:58:26.835Z,21.30
2018-03-17T22:00:54.933Z,22.07
2018-03-17T22:03:22.834Z,20.33
2018-03-17T22:05:50.801Z,22.60
2018-03-17T22:08:18.560Z,22.75
2018-03-17T22:10:46.333Z,21.20
2018-03-17T22:13:13.977Z,31.00
2018-03-17T22:15:41.936Z,20.73
2018-03-17T22:18:09.954Z,19.80
2018-03-17T22:20:37.517Z,18.17
2018-03-17T22:23:05.230Z,18.83
2018-03-17T22:25:32.941Z,18.87
2018-03-17T22:28:00.560Z,20.00
2018-03-17T22:30:28.111Z,20.40
2018-03-17T22:32:55.890Z,20.10
2018-03-17T22:35:23.562Z,19.50
2018-03-17T22:37:52.691Z,19.70
2018-03-17T22:40:20.351Z,21.17
2018-03-17T22:42:48.521Z,19.87
2018-03-17T22:45:16.216Z,20.43
2018-03-17T22:47:43.835Z,18.67
2018-03-17T22:50:11.735Z,19.57
2018-03-17T22:52:39.373Z,19.80
2018-03-17T22:55:07.639Z,21.35
2018-03-17T22:57:35.252Z,19.57
2018-03-17T23:00:02.946Z,20.80
2018-03-17T23:02:30.737Z,19.00
2018-03-17T23:04:58.639Z,23.23
2018-03-17T23:07:26.244Z,19.73
2018-03-17T23:09:53.810Z,19.80
2018-03-17T23:12:21.888Z,20.23
2018-03-17T23:14:49.657Z,18.77
2018-03-17T23:17:17.485Z,19.50
2018-03-17T23:19:45.117Z,21.90
2018-03-17T23:22:12.839Z,20.40
2018-03-17T23:24:40.672Z,21.47
2018-03-17T23:27:08.252Z,21.37
2018-03-17T23:29:36.855Z,20.33
2018-03-17T23:32:04.422Z,20.33
2018-03-17T23:34:31.987Z,19.95
2018-03-17T23:37:00.441Z,20.43
2018-03-17T23:39:28.021Z,20.03
2018-03-17T23:41:55.735Z,21.20
2018-03-17T23:44:23.534Z,20.97
2018-03-17T23:46:51.210Z,20.20
2018-03-17T23:49:19.070Z,20.13
2018-03-17T23:51:47.426Z,23.00
2018-03-17T23:54:15.203Z,18.98
2018-03-17T23:56:42.854Z,19.57
2018-03-17T23:59:10.732Z,19.93
